Time;durP1;ratioP1;P1;durP2;ratioP2;P2;SDS_P1;SDS_P2;PMS_P1;PMS_P2;Temp;Humidity;BMP_temperature;BMP_pressure;BME280_temperature;BME280_humidity;BME280_pressure;Samples;Min_cycle;Max_cycle;Signal;HPM_P1;HPM_P2
2022/08/26 00:00:31;;;;;;;11.63;4.30;;;;;;;21.06;83.89;99596.66;6325543;28;20052;-71
2022/08/26 00:03:34;;;;;;;18.40;3.87;;;;;;;21.03;83.64;99594.38;6324835;28;20051;-71
2022/08/26 00:06:36;;;;;;;19.98;4.20;;;;;;;20.98;84.40;99594.06;6323753;28;20048;-72
2022/08/26 00:09:37;;;;;;;17.20;4.57;;;;;;;20.97;84.38;99594.22;6324287;28;20484;-73
2022/08/26 00:12:39;;;;;;;16.67;4.05;;;;;;;20.91;86.63;99590.44;6307416;28;20431;-73
2022/08/26 00:15:40;;;;;;;15.18;3.78;;;;;;;20.88;86.07;99594.25;6324333;28;20047;-71
2022/08/26 00:18:41;;;;;;;20.58;4.05;;;;;;;20.83;86.24;99588.63;6325412;28;20048;-71
2022/08/26 00:21:42;;;;;;;13.60;3.60;;;;;;;20.78;85.34;99593.63;6324342;28;20055;-73
2022/08/26 00:24:42;;;;;;;21.17;4.17;;;;;;;20.72;86.57;99589.03;6325529;28;20062;-71
2022/08/26 00:27:44;;;;;;;14.20;3.70;;;;;;;20.62;86.62;99591.03;6323904;28;20036;-71
2022/08/26 00:30:48;;;;;;;22.58;3.95;;;;;;;20.62;84.87;99593.69;6325009;28;20123;-71
2022/08/26 00:33:48;;;;;;;12.85;4.07;;;;;;;20.59;86.79;99599.31;6323700;28;20040;-73
2022/08/26 00:36:49;;;;;;;14.80;4.27;;;;;;;20.60;86.30;99590.38;6323920;28;20047;-73
2022/08/26 00:39:51;;;;;;;23.17;4.87;;;;;;;20.54;85.67;99591.84;6323888;28;20044;-73
2022/08/26 00:42:52;;;;;;;12.85;3.75;;;;;;;20.50;87.58;99591.34;6323572;28;20060;-74
2022/08/26 00:46:08;;;;;;;14.13;4.10;;;;;;;20.46;88.57;99592.69;6324661;28;20040;-71
2022/08/26 00:49:15;;;;;;;17.05;4.60;;;;;;;20.40;87.99;99596.00;6324716;28;20055;-71
2022/08/26 00:52:20;;;;;;;9.35;3.95;;;;;;;20.35;88.14;99593.03;6323423;28;20044;-74
2022/08/26 00:55:37;;;;;;;16.27;3.40;;;;;;;20.33;88.98;99593.22;6323597;28;20044;-73
2022/08/26 00:58:41;;;;;;;17.73;3.92;;;;;;;20.30;89.91;99593.56;6324301;28;20388;-74
2022/08/26 01:01:43;;;;;;;17.42;3.75;;;;;;;20.28;90.14;99595.53;6324567;28;20074;-72
2022/08/26 01:04:44;;;;;;;17.67;4.43;;;;;;;20.21;88.53;99593.72;6324131;28;20487;-73
2022/08/26 01:07:48;;;;;;;16.97;4.13;;;;;;;20.10;89.15;99590.41;6324306;28;20036;-74
2022/08/26 01:10:49;;;;;;;13.65;3.83;;;;;;;20.10;90.47;99586.94;6323040;28;20471;-71
2022/08/26 01:13:57;;;;;;;15.67;4.20;;;;;;;20.07;89.06;99589.91;6323910;28;20042;-70
2022/08/26 01:17:01;;;;;;;12.82;5.05;;;;;;;20.06;90.21;99588.28;6324092;28;20047;-73
2022/08/26 01:20:11;;;;;;;14.95;4.25;;;;;;;20.03;90.94;99585.94;6322719;28;20472;-74
2022/08/26 01:23:13;;;;;;;15.32;4.05;;;;;;;19.96;91.97;99587.63;6322748;28;20050;-73
2022/08/26 01:26:28;;;;;;;14.27;3.75;;;;;;;19.91;93.18;99598.69;6324231;28;20048;-71
2022/08/26 01:29:31;;;;;;;17.40;4.45;;;;;;;19.91;91.79;99588.94;6322255;28;20618;-71
2022/08/26 01:32:32;;;;;;;13.93;4.05;;;;;;;19.94;93.35;99598.38;6322425;28;20085;-73
2022/08/26 01:35:33;;;;;;;11.95;3.75;;;;;;;19.89;91.61;99595.38;6323515;28;20101;-74
2022/08/26 01:38:34;;;;;;;14.57;4.87;;;;;;;19.80;90.06;99591.91;6305829;28;20480;-74
2022/08/26 01:41:36;;;;;;;14.67;3.80;;;;;;;19.76;91.71;99605.63;6322262;28;20051;-71
2022/08/26 01:44:44;;;;;;;14.70;3.78;;;;;;;19.74;91.05;99605.78;6321993;28;20123;-70
2022/08/26 01:47:48;;;;;;;15.30;4.13;;;;;;;19.69;93.97;99597.50;6323144;28;20076;-73
2022/08/26 01:50:50;;;;;;;13.85;4.20;;;;;;;19.63;91.78;99596.31;6305100;28;20404;-70
2022/08/26 01:53:51;;;;;;;13.38;4.00;;;;;;;19.67;92.47;99604.78;6322126;28;20450;-73
2022/08/26 01:56:54;;;;;;;11.47;4.03;;;;;;;19.60;91.43;99603.75;6321537;28;20040;-73
2022/08/26 02:00:01;;;;;;;13.43;4.40;;;;;;;19.58;92.08;99603.94;6321481;28;20040;-73
2022/08/26 02:03:17;;;;;;;15.43;4.30;;;;;;;19.52;93.92;99589.53;6304667;28;20058;-74
2022/08/26 02:06:21;;;;;;;12.05;3.63;;;;;;;19.46;92.71;99600.75;6322839;28;20044;-73
2022/08/26 02:09:23;;;;;;;16.42;4.10;;;;;;;19.45;95.90;99591.16;6321618;28;20049;-74
2022/08/26 02:12:25;;;;;;;12.10;4.57;;;;;;;19.47;95.76;99591.81;6322709;28;20173;-73
2022/08/26 02:15:27;;;;;;;18.58;4.32;;;;;;;19.43;93.10;99581.72;6322596;28;20048;-74
2022/08/26 02:18:29;;;;;;;17.17;4.82;;;;;;;19.35;97.35;99584.34;6321350;28;20601;-74
2022/08/26 02:21:33;;;;;;;15.52;4.45;;;;;;;19.37;96.45;99585.03;6322547;28;20051;-73
2022/08/26 02:24:52;;;;;;;17.55;4.97;;;;;;;19.31;95.91;99592.63;6321496;28;20036;-73
2022/08/26 02:27:55;;;;;;;15.13;4.40;;;;;;;19.34;96.91;99586.19;6322410;28;20444;-71
2022/08/26 02:30:56;;;;;;;14.32;3.90;;;;;;;19.30;97.28;99588.31;6320802;28;20056;-71
2022/08/26 02:34:19;;;;;;;12.63;4.50;;;;;;;19.26;96.37;99602.03;6320987;28;20123;-71
2022/08/26 02:37:20;;;;;;;22.05;4.65;;;;;;;19.21;93.02;99597.22;6320757;28;20478;-71
2022/08/26 02:40:24;;;;;;;7.40;3.90;;;;;;;19.17;92.98;99595.03;6322248;28;20168;-73
2022/08/26 02:43:25;;;;;;;12.98;3.90;;;;;;;19.18;92.88;99599.34;6320792;28;20075;-73
2022/08/26 02:46:26;;;;;;;14.53;4.23;;;;;;;19.10;95.17;99597.50;6321957;28;20039;-73
2022/08/26 02:49:29;;;;;;;11.90;4.50;;;;;;;19.11;93.30;99594.72;6320794;28;20408;-74
2022/08/26 02:52:29;;;;;;;13.20;4.43;;;;;;;19.04;93.35;99593.66;6354715;27;20036;-74
2022/08/26 02:55:31;;;;;;;13.00;5.00;;;;;;;18.97;93.31;99597.13;6321026;28;20058;-74
2022/08/26 02:58:32;;;;;;;13.43;4.10;;;;;;;18.99;94.66;99592.50;6320418;28;20123;-71
2022/08/26 03:01:34;;;;;;;8.30;3.90;;;;;;;18.95;93.59;99593.81;6354276;27;20557;-74
2022/08/26 03:04:39;;;;;;;16.05;4.88;;;;;;;18.93;95.64;99604.53;6320767;28;20276;-74
2022/08/26 03:07:40;;;;;;;15.00;4.18;;;;;;;18.93;95.15;99602.72;6321285;28;20036;-73
2022/08/26 03:10:40;;;;;;;15.77;4.20;;;;;;;18.89;96.46;99604.03;6323481;28;20178;-73
2022/08/26 03:13:41;;;;;;;15.52;4.40;;;;;;;18.88;96.93;99604.16;6327142;28;20094;-73
2022/08/26 03:16:44;;;;;;;17.70;4.32;;;;;;;18.88;96.83;99607.66;6326878;28;20074;-71
2022/08/26 03:19:45;;;;;;;16.02;5.22;;;;;;;18.86;98.40;99595.56;6325383;28;20795;-73
2022/08/26 03:22:46;;;;;;;13.23;5.60;;;;;;;18.86;97.18;99601.72;6326016;28;20078;-71
2022/08/26 03:25:49;;;;;;;17.40;5.10;;;;;;;18.78;96.21;99601.63;6325151;28;20186;-74
2022/08/26 03:32:11;;;;;;;16.17;4.72;;;;;;;18.77;97.28;99602.59;6326400;28;20048;-73
2022/08/26 03:35:12;;;;;;;13.85;5.00;;;;;;;18.73;96.79;99604.72;6326986;28;20039;-73
2022/08/26 03:38:13;;;;;;;8.37;4.50;;;;;;;18.69;98.32;99606.03;6326615;28;20047;-73
2022/08/26 03:41:14;;;;;;;9.50;4.35;;;;;;;18.73;97.35;99607.38;6325191;28;20097;-73
2022/08/26 03:44:15;;;;;;;15.88;4.28;;;;;;;18.70;97.31;99612.16;6314118;28;20033;-73
2022/08/26 03:47:16;;;;;;;12.95;4.82;;;;;;;18.68;98.79;99601.75;6315693;28;20119;-71
2022/08/26 03:50:19;;;;;;;12.80;4.10;;;;;;;18.66;98.32;99608.19;6322679;28;20047;-74
2022/08/26 03:53:20;;;;;;;16.23;4.60;;;;;;;18.64;97.04;99610.97;6300972;28;20277;-74
2022/08/26 03:56:21;;;;;;;11.20;4.83;;;;;;;18.63;98.37;99609.28;6299568;28;20123;-73
2022/08/26 03:59:21;;;;;;;13.27;4.50;;;;;;;18.59;96.61;99607.13;6300635;28;20063;-71
2022/08/26 04:02:22;;;;;;;16.27;4.70;;;;;;;18.61;99.16;99594.59;6314392;28;20487;-71
2022/08/26 04:05:23;;;;;;;9.30;4.80;;;;;;;18.58;97.62;99598.38;6305105;28;20044;-71
2022/08/26 04:08:24;;;;;;;13.63;4.85;;;;;;;18.60;97.78;99604.34;6323446;28;20047;-73
2022/08/26 04:11:29;;;;;;;16.73;4.60;;;;;;;18.61;97.12;99600.69;6311066;28;20045;-73
2022/08/26 04:14:31;;;;;;;15.63;4.45;;;;;;;18.62;96.70;99599.72;6315380;28;20063;-71
2022/08/26 04:17:31;;;;;;;22.05;5.25;;;;;;;18.63;95.46;99603.19;6342981;27;20385;-74
2022/08/26 04:20:32;;;;;;;14.65;4.45;;;;;;;18.65;95.08;99602.03;6322932;28;20122;-71
2022/08/26 04:23:33;;;;;;;8.65;4.25;;;;;;;18.69;95.61;99606.03;6324144;28;20040;-71
2022/08/26 04:26:38;;;;;;;13.88;4.55;;;;;;;18.66;95.53;99602.91;6357054;27;20047;-71
2022/08/26 04:29:42;;;;;;;15.57;4.57;;;;;;;18.76;96.82;99600.13;6322781;28;20052;-71
2022/08/26 04:32:43;;;;;;;11.77;3.95;;;;;;;18.79;95.27;99590.09;6301970;28;20032;-70
2022/08/26 04:35:44;;;;;;;12.77;4.20;;;;;;;18.82;93.97;99594.22;6297724;28;20089;-74
2022/08/26 04:38:45;;;;;;;8.52;4.55;;;;;;;18.83;92.58;99598.56;6298751;28;20045;-73
2022/08/26 04:41:47;;;;;;;11.43;4.45;;;;;;;18.85;91.64;99581.53;6299965;28;20047;-71
2022/08/26 04:44:49;;;;;;;15.75;5.55;;;;;;;18.93;91.72;99586.88;6306466;28;20051;-72
2022/08/26 04:47:57;;;;;;;17.80;4.03;;;;;;;18.99;90.60;99597.81;6299090;28;20044;-71
2022/08/26 04:50:59;;;;;;;11.80;4.43;;;;;;;19.06;89.49;99590.88;6298582;28;20048;-72
2022/08/26 04:54:00;;;;;;;15.30;4.60;;;;;;;19.12;89.82;99593.69;6298604;28;20484;-70
2022/08/26 04:57:01;;;;;;;11.57;4.85;;;;;;;19.18;90.53;99594.88;6280405;28;20053;-71
2022/08/26 05:00:05;;;;;;;13.60;4.82;;;;;;;19.24;87.45;99601.34;6297238;28;20408;-72
2022/08/26 05:03:06;;;;;;;15.35;4.70;;;;;;;19.28;86.69;99600.88;6297144;28;20485;-72
2022/08/26 05:06:07;;;;;;;9.03;4.77;;;;;;;19.40;87.22;99593.47;6296853;28;20051;-72
2022/08/26 05:09:08;;;;;;;10.63;3.90;;;;;;;19.49;85.10;99589.03;6296920;28;20044;-72
2022/08/26 05:12:09;;;;;;;11.47;4.80;;;;;;;19.62;85.84;99597.31;6298028;28;20094;-72
2022/08/26 05:15:10;;;;;;;14.87;4.33;;;;;;;19.71;84.84;99600.84;6296898;28;20093;-71
2022/08/26 05:18:12;;;;;;;8.60;4.38;;;;;;;19.79;83.31;99605.28;6296774;28;20044;-72
2022/08/26 05:21:19;;;;;;;11.55;3.63;;;;;;;19.88;81.13;99599.84;6296689;28;20041;-70
2022/08/26 05:24:20;;;;;;;14.80;4.18;;;;;;;19.97;80.43;99603.31;6297850;28;20040;-73
2022/08/26 05:27:20;;;;;;;12.90;4.43;;;;;;;20.07;81.08;99605.81;6297829;28;20065;-72
2022/08/26 05:30:22;;;;;;;14.20;4.18;;;;;;;20.16;79.69;99606.63;6296163;28;20053;-72
2022/08/26 05:33:22;;;;;;;12.95;3.63;;;;;;;20.24;79.87;99615.41;6295592;28;20043;-72
2022/08/26 05:36:29;;;;;;;16.07;4.03;;;;;;;20.29;77.20;99620.22;6296231;28;20048;-72
2022/08/26 05:39:33;;;;;;;12.15;4.32;;;;;;;20.37;76.56;99622.03;6299780;28;20139;-71
2022/08/26 05:42:35;;;;;;;18.80;5.03;;;;;;;20.50;77.27;99619.69;6321173;28;20404;-71
2022/08/26 05:45:43;;;;;;;11.30;3.72;;;;;;;20.61;74.50;99622.03;6321196;28;20407;-71
2022/08/26 05:48:44;;;;;;;13.35;4.05;;;;;;;20.76;76.99;99616.03;6321064;28;20040;-71
2022/08/26 05:51:45;;;;;;;10.32;3.60;;;;;;;20.77;74.89;99620.31;6321113;28;20051;-70
2022/08/26 05:54:46;;;;;;;9.63;4.30;;;;;;;20.93;75.92;99617.59;6322063;28;20036;-72
2022/08/26 05:57:47;;;;;;;16.80;4.03;;;;;;;21.07;73.04;99618.72;6321035;28;20119;-71
2022/08/26 06:00:59;;;;;;;14.47;4.00;;;;;;;21.21;73.03;99619.81;6314436;28;20059;-72
2022/08/26 06:04:00;;;;;;;8.73;3.80;;;;;;;21.30;69.99;99618.78;6306893;28;20033;-72
2022/08/26 06:07:01;;;;;;;;;;;;;;;21.47;71.54;99624.84;6309050;28;20032;-72
2022/08/26 06:10:02;;;;;;;13.32;3.60;;;;;;;21.62;73.05;99620.47;6297636;28;20422;-70
2022/08/26 06:13:03;;;;;;;9.03;3.43;;;;;;;21.80;72.71;99622.00;6296740;28;20049;-70
2022/08/26 06:16:08;;;;;;;23.05;4.00;;;;;;;21.91;68.87;99621.59;6296488;28;20041;-73
2022/08/26 06:19:14;;;;;;;18.63;3.70;;;;;;;22.07;68.95;99620.63;6296204;28;20479;-70
2022/08/26 06:25:51;;;;;;;9.23;3.75;;;;;;;22.40;65.48;99617.72;6246111;28;20053;-73
2022/08/26 06:28:54;;;;;;;14.83;4.33;;;;;;;22.65;68.66;99615.63;6297140;28;20041;-72
2022/08/26 06:31:56;;;;;;;11.95;4.00;;;;;;;22.82;68.61;99618.94;6297579;28;20304;-71
2022/08/26 06:34:57;;;;;;;7.72;3.60;;;;;;;22.92;66.45;99617.66;6318619;28;20048;-73
2022/08/26 06:37:58;;;;;;;12.43;3.73;;;;;;;23.15;65.24;99624.72;6304111;28;20059;-71
2022/08/26 06:41:01;;;;;;;7.03;3.50;;;;;;;23.32;61.33;99620.84;6321191;28;20047;-71
2022/08/26 06:44:07;;;;;;;15.32;3.40;;;;;;;23.56;62.71;99620.72;6286370;28;20092;-70
2022/08/26 06:47:08;;;;;;;12.52;3.97;;;;;;;23.72;61.54;99621.28;6297236;28;20044;-71
2022/08/26 06:50:11;;;;;;;10.20;3.30;;;;;;;23.91;59.71;99624.38;6293214;28;20076;-73
2022/08/26 06:53:13;;;;;;;12.65;3.50;;;;;;;24.11;60.46;99627.19;6295163;28;20052;-70
2022/08/26 06:56:23;;;;;;;15.00;3.47;;;;;;;24.25;55.96;99620.13;6294884;28;20036;-71
2022/08/26 06:59:24;;;;;;;9.18;3.10;;;;;;;24.51;55.86;99625.69;6326531;28;20045;-73
2022/08/26 07:02:25;;;;;;;6.90;3.50;;;;;;;24.74;56.47;99627.28;6295147;28;20037;-73
2022/08/26 07:05:26;;;;;;;13.17;3.60;;;;;;;24.87;52.77;99627.38;6312056;28;20503;-73
2022/08/26 07:08:27;;;;;;;13.13;3.77;;;;;;;25.10;53.82;99627.06;6296312;28;20117;-73
2022/08/26 07:11:27;;;;;;;15.03;3.37;;;;;;;25.37;55.70;99619.19;6296427;28;20546;-73
2022/08/26 07:14:30;;;;;;;17.15;3.13;;;;;;;25.51;53.77;99618.19;6294925;28;20048;-72
2022/08/26 07:17:31;;;;;;;10.13;3.28;;;;;;;25.68;52.54;99617.84;6296253;28;20090;-73
2022/08/26 07:20:32;;;;;;;15.97;3.13;;;;;;;25.90;53.58;99605.13;6294827;28;20491;-73
2022/08/26 07:23:33;;;;;;;23.00;3.07;;;;;;;26.12;48.19;99605.75;6294686;28;20060;-71
2022/08/26 07:26:34;;;;;;;;;;;;;;;26.29;48.11;99609.66;6295241;28;20067;-73
2022/08/26 07:29:36;;;;;;;12.43;3.10;;;;;;;26.50;46.56;99613.97;6294804;28;20559;-72
2022/08/26 07:32:37;;;;;;;15.75;3.65;;;;;;;26.66;48.27;99604.69;6294551;28;20110;-72
2022/08/26 07:35:38;;;;;;;15.90;3.43;;;;;;;26.79;45.23;99601.19;6294246;28;20076;-70
2022/08/26 07:38:40;;;;;;;13.05;2.55;;;;;;;27.01;47.12;99603.56;6295984;28;20756;-71
2022/08/26 07:41:46;;;;;;;16.42;2.88;;;;;;;27.19;45.91;99597.53;6294609;28;20055;-71
2022/08/26 07:44:47;;;;;;;10.95;3.10;;;;;;;27.46;43.43;99600.91;6294612;28;20075;-72
2022/08/26 07:47:50;;;;;;;14.77;3.55;;;;;;;27.56;42.92;99593.22;6294759;28;20045;-72
2022/08/26 07:50:52;;;;;;;13.40;2.92;;;;;;;27.67;43.95;99600.56;6296036;28;20045;-70
2022/08/26 07:53:53;;;;;;;22.95;3.20;;;;;;;27.99;43.43;99591.72;6296028;28;20044;-71
2022/08/26 07:56:54;;;;;;;8.02;3.28;;;;;;;28.00;40.67;99593.34;6313314;28;20182;-71
2022/08/26 07:59:55;;;;;;;17.80;2.90;;;;;;;28.18;40.37;99589.91;6333012;28;20044;-71
2022/08/26 08:02:56;;;;;;;7.90;2.85;;;;;;;28.26;39.50;99592.31;6316283;28;20071;-73
2022/08/26 08:05:57;;;;;;;9.25;3.03;;;;;;;28.49;41.83;99587.16;6299099;28;20048;-74
2022/08/26 08:08:59;;;;;;;12.65;3.05;;;;;;;28.69;40.54;99591.50;6300312;28;20052;-71
2022/08/26 08:12:00;;;;;;;13.60;3.00;;;;;;;28.90;39.34;99584.84;6315262;28;20059;-71
2022/08/26 08:15:01;;;;;;;15.20;3.00;;;;;;;29.04;39.39;99580.97;6299265;28;20052;-71
2022/08/26 08:18:03;;;;;;;13.93;3.05;;;;;;;29.21;37.60;99581.16;6297995;28;20044;-72
2022/08/26 08:21:04;;;;;;;15.93;2.95;;;;;;;29.39;38.91;99577.63;6298940;28;20045;-73
2022/08/26 08:24:05;;;;;;;14.73;3.08;;;;;;;29.44;37.63;99572.38;6299189;28;20094;-74
2022/08/26 08:27:06;;;;;;;21.27;3.10;;;;;;;29.53;36.18;99572.88;6298684;28;20074;-72
2022/08/26 08:30:08;;;;;;;8.00;2.40;;;;;;;29.66;37.32;99575.38;6299818;28;20079;-73
2022/08/26 08:33:09;;;;;;;12.70;2.60;;;;;;;29.88;36.14;99572.19;6299544;28;20041;-73
2022/08/26 08:36:14;;;;;;;13.02;2.75;;;;;;;29.90;35.34;99564.69;6297962;28;20212;-73
2022/08/26 08:39:16;;;;;;;14.25;2.63;;;;;;;29.96;37.21;99571.84;6315078;28;20049;-73
2022/08/26 08:42:51;;;;;;;11.05;2.60;;;;;;;30.26;38.04;99578.97;6299284;28;20044;-72
2022/08/26 08:45:56;;;;;;;8.90;2.58;;;;;;;30.47;36.37;99577.56;6297527;28;20079;-73
2022/08/26 08:48:58;;;;;;;13.23;2.83;;;;;;;30.67;36.24;99572.63;6297696;28;20401;-72
2022/08/26 08:52:11;;;;;;;11.40;2.78;;;;;;;30.68;37.37;99574.28;6299310;28;20045;-74
2022/08/26 08:55:14;;;;;;;13.52;2.58;;;;;;;30.74;33.15;99569.81;6299191;28;20128;-74
2022/08/26 08:58:23;;;;;;;8.57;2.70;;;;;;;30.94;36.19;99569.44;6298639;28;20468;-72
2022/08/26 09:01:57;;;;;;;15.18;2.47;;;;;;;31.12;37.06;99566.56;6298360;28;20055;-74
2022/08/26 09:05:07;;;;;;;9.40;2.63;;;;;;;31.27;33.73;99559.81;6277542;28;20064;-73
2022/08/26 09:08:18;;;;;;;14.30;2.60;;;;;;;31.48;35.30;99561.03;6296000;28;20040;-72
2022/08/26 09:11:19;;;;;;;15.07;2.83;;;;;;;31.81;34.57;99562.91;6313724;28;20408;-73
2022/08/26 09:14:20;;;;;;;;;;;;;;;31.84;32.47;99554.34;6313992;28;20156;-72
2022/08/26 09:17:45;;;;;;;13.95;2.95;;;;;;;31.88;32.70;99549.28;6297932;28;20342;-73
2022/08/26 09:20:52;;;;;;;13.57;2.80;;;;;;;32.09;33.09;99547.75;6330064;28;20076;-73
2022/08/26 09:23:57;;;;;;;24.08;3.45;;;;;;;32.25;33.91;99549.59;6296274;28;20083;-73
2022/08/26 09:26:58;;;;;;;14.40;3.00;;;;;;;32.28;34.79;99546.38;6296871;28;20094;-74
2022/08/26 09:29:59;;;;;;;11.27;2.53;;;;;;;32.51;31.29;99545.38;6296068;28;20087;-74
2022/08/26 09:33:06;;;;;;;14.55;2.58;;;;;;;32.69;29.94;99546.94;6297539;28;20051;-72
2022/08/26 09:36:21;;;;;;;19.02;2.95;;;;;;;32.74;29.79;99548.94;6296167;28;20463;-72
2022/08/26 09:39:22;;;;;;;12.05;2.33;;;;;;;32.76;29.56;99540.53;6295865;28;20044;-72
2022/08/26 09:42:24;;;;;;;;;;;;;;;32.98;31.37;99544.03;6313205;28;20048;-76
2022/08/26 09:45:26;;;;;;;;;;;;;;;33.07;30.97;99539.00;6330140;28;19921;-75
2022/08/26 09:48:33;;;;;;;15.25;2.72;;;;;;;32.84;29.89;99523.88;6312511;28;19920;-73
2022/08/26 09:51:33;;;;;;;14.45;2.33;;;;;;;33.11;29.05;99518.53;6296902;28;20045;-72
2022/08/26 09:54:34;;;;;;;;;;;;;;;33.20;29.63;99525.13;6296576;28;20098;-72
2022/08/26 09:57:46;;;;;;;21.70;2.75;;;;;;;33.53;30.59;99529.47;6297729;28;19921;-72
2022/08/26 10:00:56;;;;;;;12.38;2.33;;;;;;;33.63;29.61;99528.78;6313112;28;20181;-72
2022/08/26 10:04:19;;;;;;;19.63;2.80;;;;;;;33.71;25.76;99530.19;6314566;28;20140;-72
2022/08/26 10:07:40;;;;;;;10.82;2.63;;;;;;;33.57;26.98;99532.47;6329171;28;20060;-75
2022/08/26 10:10:44;;;;;;;12.93;2.35;;;;;;;33.92;29.28;99523.84;6301444;28;20048;-75
2022/08/26 10:13:54;;;;;;;17.48;2.30;;;;;;;33.81;26.49;99524.03;6298643;28;20170;-74
2022/08/26 10:17:08;;;;;;;23.08;2.83;;;;;;;34.06;26.25;99513.38;6300552;28;20139;-74
2022/08/26 10:20:16;;;;;;;8.55;2.40;;;;;;;33.85;26.42;99514.31;6301230;28;20040;-75
2022/08/26 10:23:20;;;;;;;14.35;3.28;;;;;;;33.79;27.57;99515.34;6278363;28;20101;-74
2022/08/26 10:27:06;;;;;;;13.80;2.60;;;;;;;34.12;27.39;99511.53;6328813;28;20059;-74
2022/08/26 10:30:11;;;;;;;18.25;3.00;;;;;;;34.52;25.16;99505.50;6243401;28;20053;-74
2022/08/26 10:33:17;;;;;;;18.67;2.80;;;;;;;34.49;25.60;99507.91;6210843;28;20057;-73
2022/08/26 10:39:47;;;;;;;12.82;2.53;;;;;;;34.37;23.99;99496.50;6297175;28;20119;-74
2022/08/26 10:42:48;;;;;;;14.38;2.40;;;;;;;34.15;23.44;99508.31;6314777;28;20044;-75
2022/08/26 10:45:58;;;;;;;11.20;2.08;;;;;;;34.13;24.44;99499.63;6308785;28;20083;-74
2022/08/26 10:49:07;;;;;;;16.67;2.53;;;;;;;34.55;23.85;99500.63;6305903;28;20921;-72
2022/08/26 10:52:17;;;;;;;20.35;2.47;;;;;;;34.44;26.94;99505.22;6308267;28;20114;-72
2022/08/26 10:55:42;;;;;;;15.35;2.78;;;;;;;34.79;26.14;99501.03;6310099;28;20189;-72
2022/08/26 10:59:05;;;;;;;14.98;2.85;;;;;;;34.95;27.23;99493.75;6296741;28;20701;-72
2022/08/26 11:02:34;;;;;;;14.48;2.90;;;;;;;35.26;26.14;99495.44;6297327;28;20071;-75
2022/08/26 11:05:34;;;;;;;14.40;2.15;;;;;;;35.42;25.14;99498.16;6311469;28;20163;-75
2022/08/26 11:08:44;;;;;;;20.33;2.70;;;;;;;35.26;23.42;99494.63;6294578;28;20488;-75
2022/08/26 11:11:47;;;;;;;15.00;1.97;;;;;;;35.35;23.35;99487.56;6296889;28;20052;-72
2022/08/26 11:14:49;;;;;;;11.07;2.20;;;;;;;35.47;23.95;99476.44;6321835;28;20406;-75
2022/08/26 11:17:59;;;;;;;17.08;2.35;;;;;;;35.05;24.02;99474.78;6319737;28;20052;-74
2022/08/26 11:21:00;;;;;;;18.48;2.40;;;;;;;34.88;20.72;99472.31;6319426;28;20036;-74
2022/08/26 11:24:01;;;;;;;10.02;1.80;;;;;;;34.85;21.30;99479.09;6319265;28;20485;-74
2022/08/26 11:27:01;;;;;;;15.00;2.63;;;;;;;34.87;22.88;99481.53;6309706;28;20127;-73
2022/08/26 11:30:11;;;;;;;11.52;2.15;;;;;;;34.77;22.19;99481.50;6327751;28;20412;-75
2022/08/26 11:33:47;;;;;;;13.43;1.95;;;;;;;34.91;21.80;99471.78;6326194;28;20135;-75
2022/08/26 11:36:55;;;;;;;18.67;2.45;;;;;;;34.98;21.41;99475.03;6317602;28;20056;-74
2022/08/26 11:39:56;;;;;;;14.35;1.90;;;;;;;35.11;24.33;99477.22;6335449;28;20420;-75
2022/08/26 11:43:04;;;;;;;11.80;1.98;;;;;;;35.27;21.46;99461.81;6307221;28;20055;-75
2022/08/26 11:46:09;;;;;;;17.10;2.20;;;;;;;35.35;22.12;99465.06;6358171;27;20146;-74
2022/08/26 11:49:13;;;;;;;14.75;2.20;;;;;;;35.38;22.53;99461.81;6306983;28;20044;-74
2022/08/26 11:52:19;;;;;;;17.13;2.53;;;;;;;35.39;23.02;99458.00;6286046;28;20411;-74
2022/08/26 11:55:20;;;;;;;9.60;2.00;;;;;;;34.88;24.43;99453.34;6299890;28;20068;-75
2022/08/26 11:58:24;;;;;;;14.13;2.25;;;;;;;34.86;22.33;99452.78;6299853;28;20040;-72
2022/08/26 12:01:35;;;;;;;11.00;2.20;;;;;;;35.01;22.57;99455.53;6299552;28;20041;-73
2022/08/26 12:04:39;;;;;;;8.13;2.10;;;;;;;35.06;24.54;99452.81;6314439;28;20090;-72
2022/08/26 12:07:47;;;;;;;16.88;2.33;;;;;;;35.23;21.43;99454.47;6324817;28;20040;-72
2022/08/26 12:10:50;;;;;;;11.27;2.28;;;;;;;35.05;23.39;99444.97;6324924;28;20564;-75
2022/08/26 12:14:00;;;;;;;11.50;2.05;;;;;;;35.14;24.10;99442.53;6324742;28;20036;-73
2022/08/26 12:17:24;;;;;;;8.00;1.80;;;;;;;34.98;21.41;99431.66;6323660;28;20040;-74
2022/08/26 12:20:46;;;;;;;9.30;1.98;;;;;;;35.09;22.30;99451.50;6323332;28;20161;-72
2022/08/26 12:23:50;;;;;;;6.95;2.25;;;;;;;35.34;21.46;99436.34;6323204;28;20079;-73
2022/08/26 12:27:09;;;;;;;15.57;1.70;;;;;;;35.25;21.07;99438.75;6322994;28;20048;-72
2022/08/26 12:30:14;;;;;;;13.52;2.30;;;;;;;34.81;21.54;99431.13;6323990;28;20421;-75
2022/08/26 12:33:16;;;;;;;9.85;2.30;;;;;;;34.61;21.87;99429.16;6305839;28;20040;-72
2022/08/26 12:36:27;;;;;;;11.90;2.10;;;;;;;34.21;21.82;99420.63;6331661;28;20420;-74
2022/08/26 12:39:36;;;;;;;11.05;2.10;;;;;;;34.01;21.38;99424.03;6297360;28;20596;-74
2022/08/26 12:42:42;;;;;;;17.40;2.17;;;;;;;34.12;22.78;99414.09;6331028;28;20110;-72
2022/08/26 12:45:55;;;;;;;14.55;1.98;;;;;;;34.38;21.51;99412.28;6331410;28;20036;-72
2022/08/26 12:48:59;;;;;;;10.65;1.85;;;;;;;34.30;23.33;99412.81;6297601;28;20056;-73
2022/08/26 12:52:01;;;;;;;12.05;2.40;;;;;;;34.36;23.10;99414.47;6314111;28;20067;-75
2022/08/26 12:55:16;;;;;;;22.65;2.10;;;;;;;34.49;25.54;99408.56;6298464;28;20047;-74
2022/08/26 12:58:17;;;;;;;15.18;1.80;;;;;;;34.36;21.99;99411.75;6298759;28;20109;-73
2022/08/26 13:01:21;;;;;;;13.55;2.30;;;;;;;34.37;24.09;99409.84;6298496;28;20472;-74
2022/08/26 13:04:42;;;;;;;7.05;1.98;;;;;;;34.03;22.19;99408.34;6298188;28;20083;-72
2022/08/26 13:07:43;;;;;;;11.02;2.30;;;;;;;34.00;22.25;99405.38;6299060;28;20305;-72
2022/08/26 13:10:46;;;;;;;9.02;2.10;;;;;;;33.80;23.20;99406.09;6298278;28;20488;-73
2022/08/26 13:13:52;;;;;;;18.52;2.15;;;;;;;33.65;24.52;99396.81;6298072;28;20090;-74
2022/08/26 13:16:52;;;;;;;10.13;2.50;;;;;;;33.77;23.85;99390.34;6298090;28;20041;-74
2022/08/26 13:19:54;;;;;;;13.93;2.13;;;;;;;33.75;24.62;99379.00;6297878;28;20420;-72
2022/08/26 13:22:55;;;;;;;14.70;2.10;;;;;;;33.60;24.65;99382.41;6297926;28;20072;-72
2022/08/26 13:25:55;;;;;;;8.73;2.10;;;;;;;33.62;24.44;99381.09;6298017;28;20093;-72
2022/08/26 13:28:58;;;;;;;7.68;2.10;;;;;;;33.62;25.43;99377.56;6297810;28;20033;-71
2022/08/26 13:31:59;;;;;;;11.63;2.50;;;;;;;33.47;26.30;99387.19;6296407;28;20098;-74
2022/08/26 13:35:00;;;;;;;14.60;2.00;;;;;;;33.33;23.71;99383.31;6330157;28;20098;-71
2022/08/26 13:38:00;;;;;;;21.00;2.90;;;;;;;33.40;25.83;99377.66;6279617;28;20052;-72
2022/08/26 13:41:02;;;;;;;4.50;1.77;;;;;;;33.41;25.91;99382.81;6297523;28;20043;-72
2022/08/26 13:44:08;;;;;;;15.07;2.40;;;;;;;33.25;26.64;99383.78;6330035;28;20052;-74
2022/08/26 13:47:08;;;;;;;12.48;2.40;;;;;;;33.18;24.78;99375.09;6330323;28;20048;-72
2022/08/26 13:50:09;;;;;;;11.90;2.25;;;;;;;33.17;23.90;99382.38;6329691;28;20051;-73
2022/08/26 13:53:11;;;;;;;9.82;1.85;;;;;;;33.14;22.92;99365.88;6296877;28;20485;-74
2022/08/26 13:56:12;;;;;;;4.88;1.80;;;;;;;32.96;24.39;99375.97;6295107;28;20055;-74
2022/08/26 13:59:13;;;;;;;10.55;2.40;;;;;;;33.02;23.73;99377.63;6279143;28;20257;-73
2022/08/26 14:02:14;;;;;;;13.90;2.22;;;;;;;32.95;23.11;99368.13;6295447;28;20098;-73
2022/08/26 14:05:17;;;;;;;7.18;2.17;;;;;;;32.94;22.74;99364.59;6329024;28;20056;-73
2022/08/26 14:08:18;;;;;;;10.30;2.30;;;;;;;32.84;23.39;99359.13;6329351;28;20577;-74
2022/08/26 14:11:20;;;;;;;7.30;2.20;;;;;;;32.86;23.63;99362.38;6298870;28;20180;-71
2022/08/26 14:14:21;;;;;;;16.08;2.15;;;;;;;32.86;22.95;99365.88;6325461;28;20055;-72
2022/08/26 14:17:25;;;;;;;6.53;2.10;;;;;;;32.85;23.21;99361.56;6306727;28;20045;-73
2022/08/26 14:20:27;;;;;;;13.85;2.30;;;;;;;32.82;24.79;99363.97;6314807;28;20079;-74
2022/08/26 14:23:28;;;;;;;14.32;2.65;;;;;;;32.66;25.60;99363.84;6294686;28;20048;-71
2022/08/26 14:26:29;;;;;;;;;;;;;;;32.64;23.76;99363.28;6314523;28;20121;-71
2022/08/26 14:29:32;;;;;;;8.82;2.25;;;;;;;32.60;25.38;99367.56;6306047;28;19920;-71
2022/08/26 14:32:37;;;;;;;;;;;;;;;32.58;23.70;99360.78;6320591;28;20063;-74